Time;durP1;ratioP1;P1;durP2;ratioP2;P2;SDS_P1;SDS_P2;PMS_P1;PMS_P2;Temp;Humidity;BMP_temperature;BMP_pressure;BME280_temperature;BME280_humidity;BME280_pressure;Samples;Min_cycle;Max_cycle;Signal;HPM_P1;HPM_P2
2021/04/06 00:00:55;;;;;;;2.90;1.20;;;17.90;42.60;;;;;;4984483;28;20168;-78
2021/04/06 00:03:28;;;;;;;2.90;1.00;;;18.00;42.50;;;;;;5001872;28;20239;-78
2021/04/06 00:06:00;;;;;;;3.65;1.13;;;17.90;42.40;;;;;;5000847;28;20187;-78
2021/04/06 00:08:29;;;;;;;3.70;1.17;;;17.90;42.40;;;;;;5001327;28;20163;-78
2021/04/06 00:11:00;;;;;;;3.08;1.05;;;18.00;42.60;;;;;;5001261;28;20216;-77
2021/04/06 00:13:31;;;;;;;5.85;1.10;;;17.90;42.40;;;;;;5000713;28;20184;-78
2021/04/06 00:15:57;;;;;;;2.40;0.95;;;17.90;42.30;;;;;;5001744;28;20167;-77
2021/04/06 00:18:23;;;;;;;1.90;0.88;;;17.90;42.40;;;;;;4984085;28;20160;-78
2021/04/06 00:20:48;;;;;;;3.35;1.15;;;17.90;42.50;;;;;;5000527;28;20188;-78
2021/04/06 00:23:16;;;;;;;4.38;0.82;;;17.90;42.40;;;;;;4984424;28;20160;-77
2021/04/06 00:25:44;;;;;;;3.72;1.10;;;17.90;42.60;;;;;;5001150;28;20160;-77
2021/04/06 00:28:14;;;;;;;2.42;0.77;;;17.90;42.60;;;;;;5001911;28;20163;-78
2021/04/06 00:30:41;;;;;;;4.80;1.40;;;17.90;42.40;;;;;;5000165;28;20191;-78
2021/04/06 00:33:13;;;;;;;2.90;0.95;;;17.90;42.50;;;;;;5010416;28;20231;-78
2021/04/06 00:35:40;;;;;;;3.85;0.95;;;17.90;42.50;;;;;;4998320;28;20153;-78
2021/04/06 00:38:34;;;;;;;3.88;0.90;;;17.90;42.50;;;;;;4997830;28;20163;-78
2021/04/06 00:41:05;;;;;;;1.85;0.90;;;17.90;42.50;;;;;;4965238;28;20179;-78
2021/04/06 00:43:35;;;;;;;3.55;0.80;;;17.90;43.20;;;;;;4981763;28;20646;-78
2021/04/06 00:46:02;;;;;;;4.03;1.20;;;17.90;42.50;;;;;;4999212;28;20156;-78
2021/04/06 00:48:27;;;;;;;4.82;0.82;;;17.90;42.60;;;;;;4997503;28;20627;-78
2021/04/06 00:51:10;;;;;;;2.30;0.90;;;17.90;42.60;;;;;;4998984;28;20200;-78
2021/04/06 00:54:03;;;;;;;4.10;1.00;;;17.90;42.70;;;;;;4997935;28;20240;-78
2021/04/06 00:56:42;;;;;;;2.83;1.00;;;17.90;42.70;;;;;;4996427;28;20316;-78
2021/04/06 00:59:09;;;;;;;4.25;0.77;;;17.90;42.60;;;;;;4999221;28;20242;-78
2021/04/06 01:01:42;;;;;;;3.97;0.85;;;17.90;42.60;;;;;;4998078;28;20156;-78
2021/04/06 01:04:18;;;;;;;2.47;1.00;;;17.90;42.60;;;;;;5000768;28;20164;-78
2021/04/06 01:07:01;;;;;;;3.25;0.90;;;17.90;42.70;;;;;;4998936;28;20159;-77
2021/04/06 01:09:43;;;;;;;2.30;0.93;;;17.90;42.70;;;;;;4999872;28;20167;-78
2021/04/06 01:12:10;;;;;;;2.08;0.70;;;17.90;42.70;;;;;;4998734;28;20188;-78
2021/04/06 01:14:42;;;;;;;2.75;1.10;;;17.90;42.70;;;;;;4998765;28;20164;-78
2021/04/06 01:17:11;;;;;;;4.80;1.05;;;17.80;42.70;;;;;;4981628;28;20165;-78
2021/04/06 01:19:38;;;;;;;4.30;1.30;;;17.80;42.70;;;;;;4999691;28;20559;-78
2021/04/06 01:22:09;;;;;;;3.22;1.02;;;17.80;42.70;;;;;;4998776;28;20164;-78
2021/04/06 01:24:35;;;;;;;1.30;0.80;;;17.90;42.60;;;;;;4981739;28;20178;-78
2021/04/06 01:27:02;;;;;;;4.22;0.80;;;17.90;42.60;;;;;;4999573;28;20180;-78
2021/04/06 01:29:28;;;;;;;2.47;0.93;;;17.80;42.60;;;;;;4999666;28;20160;-78
2021/04/06 01:31:55;;;;;;;3.53;0.95;;;17.90;42.70;;;;;;5005348;28;20285;-78
2021/04/06 01:34:22;;;;;;;3.33;1.00;;;17.80;42.70;;;;;;5001821;28;20147;-78
2021/04/06 01:36:50;;;;;;;1.58;1.00;;;17.80;42.70;;;;;;5001768;28;20222;-78
2021/04/06 01:39:18;;;;;;;3.40;1.10;;;17.80;42.80;;;;;;5001358;28;20148;-78
2021/04/06 01:42:06;;;;;;;3.80;0.93;;;17.80;42.70;;;;;;5001323;28;20210;-78
2021/04/06 01:44:35;;;;;;;3.88;0.90;;;17.80;42.70;;;;;;5003240;28;20194;-78
2021/04/06 01:47:01;;;;;;;2.97;0.90;;;17.80;42.80;;;;;;5018949;28;20613;-78
2021/04/06 01:49:28;;;;;;;2.05;0.80;;;17.80;43.30;;;;;;5001382;28;20186;-78
2021/04/06 01:51:56;;;;;;;1.92;0.80;;;17.80;42.60;;;;;;5001126;28;20194;-77
2021/04/06 01:54:22;;;;;;;2.30;0.70;;;17.80;42.70;;;;;;5000902;28;20519;-78
2021/04/06 01:59:20;;;;;;;2.80;0.95;;;17.80;42.60;;;;;;5019108;28;20155;-78
2021/04/06 02:01:52;;;;;;;2.35;0.90;;;17.80;42.60;;;;;;5019134;28;20230;-78
2021/04/06 02:04:19;;;;;;;2.80;0.90;;;17.80;42.70;;;;;;5018826;28;20526;-79
2021/04/06 02:06:46;;;;;;;2.22;0.90;;;17.80;42.80;;;;;;5001096;28;20163;-78
2021/04/06 02:09:12;;;;;;;1.67;0.77;;;17.80;42.80;;;;;;5001065;28;20159;-78
2021/04/06 02:11:47;;;;;;;2.95;0.90;;;17.80;43.00;;;;;;4998692;28;20230;-78
2021/04/06 02:14:23;;;;;;;3.67;0.95;;;17.80;42.90;;;;;;5010759;28;20163;-78
2021/04/06 02:16:51;;;;;;;1.92;0.90;;;17.80;42.80;;;;;;5019011;28;20213;-77
2021/04/06 02:19:38;;;;;;;0.80;0.60;;;17.80;42.60;;;;;;5018895;28;20152;-80
2021/04/06 02:22:14;;;;;;;5.38;0.98;;;17.80;42.80;;;;;;5001215;28;20246;-78
2021/04/06 02:24:45;;;;;;;2.13;0.70;;;17.80;42.80;;;;;;5018700;28;20159;-78
2021/04/06 02:27:17;;;;;;;3.20;0.85;;;17.80;42.70;;;;;;5001217;28;20179;-78
2021/04/06 02:30:09;;;;;;;4.50;0.90;;;17.80;42.70;;;;;;5018881;28;20156;-78
2021/04/06 02:32:35;;;;;;;4.38;0.68;;;17.80;42.80;;;;;;4999555;28;20227;-78
2021/04/06 02:35:09;;;;;;;2.55;0.70;;;17.80;42.90;;;;;;5016858;28;20164;-78
2021/04/06 02:37:36;;;;;;;3.75;1.30;;;17.80;42.90;;;;;;5017021;28;20202;-77
2021/04/06 02:40:06;;;;;;;4.10;1.00;;;17.70;42.80;;;;;;5018087;28;20598;-78
2021/04/06 02:42:44;;;;;;;2.58;0.85;;;17.70;42.80;;;;;;5018512;28;20167;-78
2021/04/06 02:45:22;;;;;;;2.13;1.00;;;17.80;42.80;;;;;;5017910;28;20182;-77
2021/04/06 02:48:07;;;;;;;2.53;0.80;;;17.80;42.70;;;;;;5000928;28;20290;-79
2021/04/06 02:50:48;;;;;;;2.55;0.77;;;17.80;42.90;;;;;;5017274;28;20193;-79
2021/04/06 02:53:16;;;;;;;3.80;1.15;;;17.80;42.80;;;;;;5018586;28;20685;-78
2021/04/06 02:55:42;;;;;;;2.25;0.98;;;17.80;42.80;;;;;;5017480;28;20199;-78
2021/04/06 02:58:15;;;;;;;2.65;0.80;;;17.70;42.80;;;;;;5018455;28;20164;-78
2021/04/06 03:00:41;;;;;;;1.17;0.70;;;17.70;42.90;;;;;;5018832;28;20160;-78
2021/04/06 03:03:27;;;;;;;1.88;0.82;;;17.70;43.00;;;;;;5018721;28;20152;-78
2021/04/06 03:06:11;;;;;;;3.03;1.02;;;17.80;42.80;;;;;;5017604;28;20230;-78
2021/04/06 03:08:39;;;;;;;3.03;0.90;;;17.70;42.80;;;;;;5017731;28;20547;-78
2021/04/06 03:11:06;;;;;;;2.92;0.82;;;17.70;42.90;;;;;;5018945;28;20709;-78
2021/04/06 03:13:32;;;;;;;2.47;0.90;;;17.70;42.90;;;;;;5018983;28;20175;-78
2021/04/06 03:15:59;;;;;;;2.28;1.00;;;17.70;42.90;;;;;;5018485;28;20580;-78
2021/04/06 03:18:33;;;;;;;2.10;0.90;;;17.70;42.90;;;;;;5016724;28;20266;-78
2021/04/06 03:21:04;;;;;;;2.97;0.70;;;17.70;42.90;;;;;;5019288;28;20159;-78
2021/04/06 03:23:31;;;;;;;2.72;0.73;;;17.70;43.00;;;;;;5001060;28;20163;-78
2021/04/06 03:25:57;;;;;;;1.92;0.60;;;17.70;42.90;;;;;;5018800;28;20231;-78
2021/04/06 03:28:32;;;;;;;4.18;1.00;;;17.70;42.90;;;;;;5017146;28;20186;-78
2021/04/06 03:31:06;;;;;;;2.33;0.90;;;17.70;43.00;;;;;;5001471;28;20183;-78
2021/04/06 03:33:31;;;;;;;1.60;0.85;;;17.70;42.80;;;;;;5018365;28;20223;-78
2021/04/06 03:35:57;;;;;;;1.42;0.70;;;17.70;43.00;;;;;;5018303;28;20162;-78
2021/04/06 03:38:22;;;;;;;2.15;0.80;;;17.70;42.90;;;;;;5018315;28;20168;-78
2021/04/06 03:40:48;;;;;;;2.63;0.88;;;17.70;42.80;;;;;;5000870;28;20171;-78
2021/04/06 03:43:15;;;;;;;1.60;0.70;;;17.70;43.00;;;;;;5000938;28;20159;-78
2021/04/06 03:46:02;;;;;;;2.10;0.70;;;17.70;43.00;;;;;;5018983;28;20183;-78
2021/04/06 03:48:29;;;;;;;3.03;0.88;;;17.70;42.90;;;;;;5005104;28;20148;-78
2021/04/06 03:50:55;;;;;;;2.67;0.90;;;17.70;43.10;;;;;;5004239;28;20226;-78
2021/04/06 03:53:23;;;;;;;4.05;1.17;;;17.60;42.90;;;;;;5004359;28;20203;-78
2021/04/06 03:56:04;;;;;;;3.65;0.85;;;17.60;43.00;;;;;;5004285;28;20151;-78
2021/04/06 03:58:45;;;;;;;1.63;0.90;;;17.60;42.90;;;;;;5021457;28;20159;-77
2021/04/06 04:01:12;;;;;;;4.28;0.82;;;17.70;43.00;;;;;;5004490;28;20156;-78
2021/04/06 04:03:39;;;;;;;2.55;0.88;;;17.70;42.70;;;;;;5022976;28;20491;-78
2021/04/06 04:06:05;;;;;;;4.30;0.80;;;17.70;43.00;;;;;;5023112;28;20156;-78
2021/04/06 04:08:32;;;;;;;3.08;0.85;;;17.60;43.00;;;;;;4988456;28;20243;-78
2021/04/06 04:10:58;;;;;;;0.73;0.50;;;17.70;42.50;;;;;;5022810;28;20183;-78
2021/04/06 04:13:25;;;;;;;1.55;0.60;;;17.70;42.00;;;;;;5005029;28;20151;-78
2021/04/06 04:15:51;;;;;;;1.90;0.60;;;17.80;42.00;;;;;;5004692;28;20159;-78
2021/04/06 04:18:17;;;;;;;1.48;0.70;;;17.90;41.90;;;;;;5004915;28;20238;-78
2021/04/06 04:20:43;;;;;;;2.10;0.80;;;17.90;41.80;;;;;;5004430;28;20710;-78
2021/04/06 04:23:09;;;;;;;2.30;0.80;;;17.90;41.40;;;;;;5005294;28;20523;-78
2021/04/06 04:25:35;;;;;;;2.05;0.70;;;17.90;41.60;;;;;;5022173;28;20523;-78
2021/04/06 04:28:00;;;;;;;2.05;0.60;;;17.90;41.70;;;;;;5005319;28;20163;-78
2021/04/06 04:30:47;;;;;;;1.15;0.70;;;17.90;41.80;;;;;;5022666;28;20178;-78
2021/04/06 04:33:13;;;;;;;0.80;0.52;;;17.90;41.60;;;;;;4974131;28;20563;-78
2021/04/06 04:35:39;;;;;;;2.42;0.70;;;17.90;41.30;;;;;;5002268;28;20191;-78
2021/04/06 04:38:06;;;;;;;1.60;0.50;;;17.90;41.30;;;;;;5002254;28;20153;-78
2021/04/06 04:40:32;;;;;;;1.08;0.80;;;17.90;41.20;;;;;;5002626;28;20173;-78
2021/04/06 04:42:57;;;;;;;1.17;0.77;;;18.00;40.90;;;;;;4984851;28;20167;-78
2021/04/06 04:45:23;;;;;;;4.15;1.02;;;17.90;41.40;;;;;;5000879;28;20621;-78
2021/04/06 04:47:49;;;;;;;1.58;0.50;;;17.90;41.40;;;;;;4984330;28;20521;-78
2021/04/06 04:50:17;;;;;;;1.88;0.70;;;17.90;41.40;;;;;;5001330;28;20169;-78
2021/04/06 04:52:45;;;;;;;1.88;0.70;;;17.90;41.10;;;;;;5000707;28;20183;-78
2021/04/06 04:55:17;;;;;;;1.23;0.70;;;17.90;41.60;;;;;;5000879;28;20179;-78
2021/04/06 04:57:43;;;;;;;1.02;0.60;;;17.80;41.30;;;;;;5000024;28;20156;-78
2021/04/06 05:00:11;;;;;;;1.48;0.68;;;17.90;40.90;;;;;;4999273;28;20631;-77
2021/04/06 05:02:38;;;;;;;2.25;0.63;;;17.90;41.10;;;;;;4999162;28;20616;-78
2021/04/06 05:05:05;;;;;;;1.38;0.60;;;17.90;40.80;;;;;;4998532;28;20163;-77
2021/04/06 05:07:31;;;;;;;1.80;0.95;;;17.90;41.00;;;;;;4998850;28;20168;-78
2021/04/06 05:09:57;;;;;;;1.48;0.50;;;17.90;40.90;;;;;;4962767;28;20185;-78
2021/04/06 05:12:23;;;;;;;1.40;0.60;;;17.90;40.90;;;;;;4966857;28;20184;-78
2021/04/06 05:14:49;;;;;;;1.02;0.60;;;17.90;40.70;;;;;;4980621;28;20639;-79
2021/04/06 05:17:15;;;;;;;1.20;0.80;;;17.90;40.90;;;;;;4998654;28;20161;-78
2021/04/06 05:19:41;;;;;;;1.58;0.60;;;17.90;40.80;;;;;;4997404;28;20165;-78
2021/04/06 05:22:07;;;;;;;0.50;0.50;;;17.90;40.80;;;;;;4996540;28;20172;-78
2021/04/06 05:24:33;;;;;;;0.95;0.50;;;17.90;40.50;;;;;;4996315;28;20164;-78
2021/04/06 05:26:58;;;;;;;0.60;0.50;;;17.90;40.70;;;;;;4996234;28;20188;-79
2021/04/06 05:29:24;;;;;;;1.58;0.60;;;17.90;40.50;;;;;;4979274;28;20227;-78
2021/04/06 05:31:50;;;;;;;0.98;0.50;;;17.90;40.70;;;;;;4969124;28;20613;-78
2021/04/06 05:34:15;;;;;;;0.88;0.60;;;17.90;40.80;;;;;;5000853;28;20599;-78
2021/04/06 05:36:42;;;;;;;0.80;0.50;;;17.90;40.50;;;;;;5019364;28;20152;-78
2021/04/06 05:39:08;;;;;;;1.10;0.60;;;17.90;40.60;;;;;;5019558;28;20635;-78
2021/04/06 05:41:35;;;;;;;2.13;0.60;;;17.90;40.50;;;;;;4998129;28;20643;-78
2021/04/06 05:44:03;;;;;;;2.03;0.60;;;17.90;40.30;;;;;;5018015;28;20159;-78
2021/04/06 05:46:30;;;;;;;0.60;0.50;;;17.80;40.30;;;;;;5001954;28;20154;-78
2021/04/06 05:48:59;;;;;;;1.00;0.50;;;17.90;40.40;;;;;;4999958;28;20230;-78
2021/04/06 05:51:26;;;;;;;0.40;0.40;;;17.90;40.20;;;;;;5000129;28;20194;-78
2021/04/06 05:53:52;;;;;;;0.47;0.47;;;17.90;40.30;;;;;;5016712;28;20186;-78
2021/04/06 05:56:17;;;;;;;1.25;0.50;;;17.90;40.00;;;;;;4998224;28;20167;-77
2021/04/06 05:58:43;;;;;;;1.42;0.50;;;17.90;40.60;;;;;;4994912;28;20164;-77
2021/04/06 06:01:09;;;;;;;0.85;0.40;;;17.90;40.00;;;;;;4996834;28;20195;-78
2021/04/06 06:03:36;;;;;;;1.65;0.40;;;17.90;39.90;;;;;;5015808;28;20661;-78
2021/04/06 06:06:03;;;;;;;1.15;0.50;;;17.90;39.60;;;;;;4998301;28;20160;-78
2021/04/06 06:08:30;;;;;;;0.90;0.43;;;17.90;39.70;;;;;;4998212;28;20521;-78
2021/04/06 06:11:06;;;;;;;1.65;0.43;;;18.00;39.60;;;;;;5015467;28;20746;-78
2021/04/06 06:13:34;;;;;;;1.25;0.50;;;18.00;39.40;;;;;;5015600;28;20163;-78
2021/04/06 06:16:08;;;;;;;0.98;0.50;;;18.00;40.00;;;;;;5015479;28;20155;-78
2021/04/06 06:18:53;;;;;;;1.15;0.50;;;17.90;40.20;;;;;;5015097;28;20195;-77
2021/04/06 06:21:19;;;;;;;0.50;0.40;;;17.90;40.40;;;;;;4997057;28;20523;-78
2021/04/06 06:23:45;;;;;;;3.03;0.60;;;17.90;40.50;;;;;;4996718;28;20274;-78
2021/04/06 06:26:10;;;;;;;0.93;0.50;;;17.90;40.50;;;;;;4994759;28;20152;-78
2021/04/06 06:28:37;;;;;;;2.10;0.50;;;17.80;40.50;;;;;;5014102;28;20155;-78
2021/04/06 06:31:03;;;;;;;0.95;0.50;;;17.80;40.40;;;;;;5014115;28;20191;-78
2021/04/06 06:33:33;;;;;;;0.70;0.50;;;17.90;40.40;;;;;;4996419;28;20813;-78
2021/04/06 06:36:19;;;;;;;0.60;0.43;;;17.90;40.10;;;;;;5016277;28;20279;-79
2021/04/06 06:38:45;;;;;;;0.80;0.57;;;17.90;40.10;;;;;;5018396;28;20187;-79
2021/04/06 06:41:15;;;;;;;0.82;0.43;;;17.90;39.90;;;;;;5017489;28;20170;-78
2021/04/06 06:43:42;;;;;;;1.00;0.40;;;17.90;39.80;;;;;;5017417;28;20159;-78
2021/04/06 06:46:29;;;;;;;2.72;0.43;;;17.90;39.80;;;;;;5001959;28;20210;-78
2021/04/06 06:48:56;;;;;;;0.75;0.50;;;17.90;39.60;;;;;;5019821;28;20201;-78
2021/04/06 06:51:33;;;;;;;0.75;0.47;;;17.90;39.60;;;;;;5002869;28;20214;-78
2021/04/06 06:53:59;;;;;;;0.88;0.50;;;17.90;39.60;;;;;;5003522;28;20242;-78
2021/04/06 06:56:38;;;;;;;0.82;0.50;;;17.90;39.60;;;;;;5020657;28;20194;-78
2021/04/06 06:59:10;;;;;;;2.70;0.50;;;17.90;39.40;;;;;;5020255;28;20151;-78
2021/04/06 07:01:36;;;;;;;0.50;0.40;;;18.00;39.40;;;;;;4997932;28;20194;-78
2021/04/06 07:04:02;;;;;;;0.95;0.47;;;18.00;39.20;;;;;;5001308;28;20650;-78
2021/04/06 07:06:28;;;;;;;1.20;0.55;;;18.00;39.40;;;;;;5000199;28;20160;-78
2021/04/06 07:08:54;;;;;;;0.70;0.50;;;18.00;39.20;;;;;;5003650;28;20579;-78
2021/04/06 07:11:20;;;;;;;0.70;0.40;;;18.00;39.10;;;;;;4989206;28;20740;-79
2021/04/06 07:13:47;;;;;;;0.47;0.43;;;18.00;39.20;;;;;;4986040;28;20235;-78
2021/04/06 07:16:15;;;;;;;0.30;0.30;;;18.00;39.20;;;;;;4970737;28;20160;-78
2021/04/06 07:18:46;;;;;;;0.60;0.47;;;18.00;39.00;;;;;;5005059;28;20167;-78
2021/04/06 07:21:12;;;;;;;0.43;0.32;;;18.00;38.90;;;;;;5011548;28;20181;-78
2021/04/06 07:23:49;;;;;;;1.70;0.30;;;18.00;39.00;;;;;;5011658;28;20168;-78
2021/04/06 07:26:18;;;;;;;2.28;0.80;;;17.90;39.10;;;;;;4996319;28;20178;-78
2021/04/06 07:28:43;;;;;;;0.93;0.55;;;18.00;38.90;;;;;;5027406;28;20427;-79
2021/04/06 07:31:18;;;;;;;0.57;0.50;;;18.00;38.80;;;;;;5011836;28;20207;-79
2021/04/06 07:33:48;;;;;;;6.15;0.50;;;18.00;38.70;;;;;;5027598;28;20214;-78
2021/04/06 07:36:34;;;;;;;5.78;0.68;;;18.00;38.90;;;;;;5027120;28;20642;-78
2021/04/06 07:39:09;;;;;;;3.50;0.70;;;18.10;38.50;;;;;;5007100;28;20207;-78
2021/04/06 07:41:46;;;;;;;9.73;0.90;;;18.00;38.90;;;;;;5026970;28;20167;-78
2021/04/06 07:44:13;;;;;;;5.35;1.17;;;18.00;38.90;;;;;;5007172;28;20237;-79
2021/04/06 07:46:40;;;;;;;4.05;0.50;;;18.00;39.10;;;;;;5025145;28;20187;-79
2021/04/06 07:49:32;;;;;;;3.05;0.70;;;18.00;38.80;;;;;;5008193;28;20155;-78
2021/04/06 07:52:01;;;;;;;2.53;0.50;;;18.00;39.00;;;;;;5019938;28;20229;-79
2021/04/06 07:54:30;;;;;;;1.55;0.50;;;18.10;38.40;;;;;;5027297;28;20650;-79
2021/04/06 07:57:23;;;;;;;4.38;0.45;;;18.20;38.30;;;;;;5024557;28;20238;-79
2021/04/06 08:00:09;;;;;;;2.35;0.52;;;18.20;38.00;;;;;;5007586;28;20180;-79
2021/04/06 08:02:43;;;;;;;1.25;0.32;;;18.10;37.90;;;;;;5021149;28;20239;-79
2021/04/06 08:05:10;;;;;;;2.15;0.55;;;18.20;38.00;;;;;;5022019;28;20163;-79
2021/04/06 08:07:37;;;;;;;3.25;0.45;;;18.10;37.90;;;;;;5022982;28;20227;-78
2021/04/06 08:10:11;;;;;;;0.65;0.50;;;18.10;38.10;;;;;;5035344;28;20179;-78
2021/04/06 08:12:46;;;;;;;2.05;0.50;;;18.10;37.80;;;;;;5034226;28;20192;-79
2021/04/06 08:15:35;;;;;;;3.05;0.50;;;18.10;38.20;;;;;;5010644;28;20152;-79
2021/04/06 08:18:03;;;;;;;2.17;0.50;;;18.10;38.10;;;;;;4993386;28;20207;-78
2021/04/06 08:20:31;;;;;;;1.70;0.52;;;18.30;37.60;;;;;;5013019;28;20183;-78
2021/04/06 08:23:09;;;;;;;1.15;0.40;;;18.30;37.70;;;;;;5029585;28;20164;-78
2021/04/06 08:25:35;;;;;;;1.00;0.52;;;18.20;37.60;;;;;;5031591;28;20237;-78
2021/04/06 08:28:03;;;;;;;1.08;0.40;;;18.30;37.10;;;;;;5016568;28;20151;-78
2021/04/06 08:30:37;;;;;;;1.60;0.40;;;18.30;37.80;;;;;;5011744;28;20179;-78
2021/04/06 08:33:07;;;;;;;3.97;0.60;;;18.20;37.60;;;;;;4999167;28;20255;-79
2021/04/06 08:38:28;;;;;;;0.98;0.40;;;18.10;38.30;;;;;;5005971;28;20186;-78
2021/04/06 08:41:00;;;;;;;3.08;0.60;;;18.10;37.90;;;;;;4992420;28;20226;-78
2021/04/06 08:43:33;;;;;;;6.70;1.00;;;18.10;38.20;;;;;;4978182;28;20246;-78
2021/04/06 08:46:00;;;;;;;27.65;2.67;;;18.10;37.50;;;;;;5009325;28;20186;-78
2021/04/06 08:48:51;;;;;;;19.52;1.75;;;18.20;37.50;;;;;;4992375;28;20172;-78
2021/04/06 08:51:23;;;;;;;9.40;1.10;;;18.30;37.50;;;;;;5008875;28;20228;-78
2021/04/06 08:53:56;;;;;;;5.25;0.90;;;18.30;37.40;;;;;;4977082;28;20180;-78
2021/04/06 08:56:34;;;;;;;10.85;0.88;;;18.30;37.10;;;;;;4994734;28;20156;-79
2021/04/06 08:59:20;;;;;;;5.78;0.70;;;18.40;37.00;;;;;;4994292;28;20579;-79
2021/04/06 09:02:12;;;;;;;1.45;0.50;;;18.30;37.10;;;;;;4992165;28;20167;-77
2021/04/06 09:04:46;;;;;;;3.65;0.70;;;18.40;36.90;;;;;;5013022;28;20230;-77
2021/04/06 09:07:30;;;;;;;3.03;0.50;;;18.40;37.00;;;;;;4995281;28;20247;-79
2021/04/06 09:09:58;;;;;;;2.85;0.77;;;18.40;36.90;;;;;;5011514;28;20228;-78
2021/04/06 09:12:25;;;;;;;3.08;0.80;;;18.40;37.10;;;;;;5011745;28;20187;-78
2021/04/06 09:14:52;;;;;;;7.13;0.70;;;18.40;37.30;;;;;;4995474;28;20164;-79
2021/04/06 09:17:19;;;;;;;7.38;0.50;;;18.40;37.10;;;;;;5013042;28;20210;-77
2021/04/06 09:19:51;;;;;;;3.03;0.80;;;18.40;37.00;;;;;;5013538;28;20210;-80
2021/04/06 09:22:17;;;;;;;4.50;0.82;;;18.40;37.00;;;;;;5006922;28;20163;-80
2021/04/06 09:24:44;;;;;;;9.60;0.80;;;18.30;37.30;;;;;;5017902;28;20248;-79
2021/04/06 09:27:11;;;;;;;5.75;0.88;;;18.40;37.80;;;;;;4996124;28;20172;-80
2021/04/06 09:29:40;;;;;;;9.48;1.05;;;18.40;36.50;;;;;;5012388;28;20174;-79
2021/04/06 09:32:11;;;;;;;7.80;0.80;;;18.40;37.10;;;;;;5018898;28;20265;-79
2021/04/06 09:34:46;;;;;;;6.60;0.90;;;18.40;36.80;;;;;;5031870;28;20160;-79
2021/04/06 09:37:13;;;;;;;6.75;1.00;;;18.40;36.60;;;;;;5014821;28;20159;-79
2021/04/06 09:39:46;;;;;;;10.63;0.70;;;18.40;36.60;;;;;;5030869;28;20191;-79
2021/04/06 09:42:24;;;;;;;9.90;1.17;;;18.40;36.80;;;;;;5032247;28;20159;-80
2021/04/06 09:44:51;;;;;;;3.00;0.60;;;18.40;36.70;;;;;;5010945;28;20210;-80
2021/04/06 09:47:24;;;;;;;2.65;0.50;;;18.40;36.50;;;;;;4995789;28;20239;-80
2021/04/06 09:50:00;;;;;;;4.13;0.70;;;18.40;36.70;;;;;;5012102;28;20166;-80
2021/04/06 09:52:27;;;;;;;4.13;0.95;;;18.40;36.50;;;;;;4994570;28;20219;-79
2021/04/06 09:54:59;;;;;;;3.88;0.40;;;18.40;36.60;;;;;;5009846;28;20167;-79
2021/04/06 09:57:35;;;;;;;1.95;0.32;;;18.40;36.40;;;;;;5012499;28;20244;-80
2021/04/06 10:00:05;;;;;;;5.88;0.80;;;18.40;36.20;;;;;;5010444;28;20250;-79
2021/04/06 10:02:32;;;;;;;4.85;0.70;;;18.40;36.50;;;;;;5010575;28;20218;-79
2021/04/06 10:04:58;;;;;;;1.80;0.50;;;18.40;36.40;;;;;;5030028;28;20163;-79
2021/04/06 10:07:30;;;;;;;7.82;0.75;;;18.40;35.90;;;;;;5013674;28;20591;-80
2021/04/06 10:10:01;;;;;;;4.07;0.80;;;18.40;36.30;;;;;;5013350;28;20194;-79
2021/04/06 10:12:29;;;;;;;9.35;0.90;;;18.50;35.90;;;;;;5029035;28;20202;-79
2021/04/06 10:15:04;;;;;;;6.38;0.82;;;18.50;36.00;;;;;;4996843;28;20203;-79
2021/04/06 10:17:42;;;;;;;7.15;0.90;;;18.50;36.00;;;;;;5031485;28;20167;-79
2021/04/06 10:20:19;;;;;;;6.63;0.70;;;18.50;35.80;;;;;;5014572;28;20524;-79
2021/04/06 10:22:48;;;;;;;4.75;0.63;;;18.40;35.80;;;;;;5031913;28;20163;-78
2021/04/06 10:25:42;;;;;;;15.82;1.33;;;18.40;35.70;;;;;;5032540;28;20330;-79
2021/04/06 10:28:28;;;;;;;14.95;1.13;;;18.50;35.60;;;;;;5018535;28;20211;-79
2021/04/06 10:31:14;;;;;;;27.63;1.83;;;18.50;35.50;;;;;;5013275;28;20198;-79
2021/04/06 10:33:41;;;;;;;17.50;1.33;;;18.50;35.50;;;;;;5011493;28;20215;-79
2021/04/06 10:36:09;;;;;;;13.23;1.00;;;18.50;35.10;;;;;;5012386;28;20160;-79
2021/04/06 10:39:00;;;;;;;9.77;0.82;;;18.50;35.30;;;;;;5012943;28;20167;-79
2021/04/06 10:41:27;;;;;;;20.52;1.90;;;18.50;35.10;;;;;;5012659;28;20252;-79
2021/04/06 10:43:55;;;;;;;14.07;1.02;;;18.50;35.20;;;;;;5012289;28;20187;-79
2021/04/06 10:46:24;;;;;;;17.67;1.00;;;18.50;35.00;;;;;;4997720;28;20179;-80
2021/04/06 10:48:52;;;;;;;11.40;0.90;;;18.50;34.90;;;;;;5014985;28;20165;-79
2021/04/06 10:51:25;;;;;;;14.68;0.90;;;18.50;34.90;;;;;;4979604;28;20200;-79
2021/04/06 10:53:56;;;;;;;7.88;1.02;;;18.50;34.80;;;;;;4998561;28;20160;-78
2021/04/06 10:56:27;;;;;;;31.92;2.03;;;18.40;35.00;;;;;;5000678;28;20152;-79
2021/04/06 10:59:03;;;;;;;20.73;2.20;;;18.40;35.00;;;;;;5019975;28;20204;-79
2021/04/06 11:01:48;;;;;;;29.77;1.73;;;18.50;34.60;;;;;;5020376;28;20183;-80
2021/04/06 11:04:36;;;;;;;22.75;1.55;;;18.60;34.70;;;;;;5020499;28;20669;-80
2021/04/06 11:07:22;;;;;;;13.73;1.33;;;18.60;34.40;;;;;;5019264;28;20172;-79
2021/04/06 11:09:48;;;;;;;10.00;1.17;;;18.60;34.70;;;;;;5001340;28;20164;-80
2021/04/06 11:12:16;;;;;;;10.65;0.80;;;18.60;34.40;;;;;;5019568;28;20587;-79
2021/04/06 11:14:44;;;;;;;11.88;0.90;;;18.60;34.60;;;;;;5002247;28;20599;-79
2021/04/06 11:17:19;;;;;;;13.07;1.05;;;18.60;34.60;;;;;;5019907;28;20148;-79
2021/04/06 11:19:54;;;;;;;4.65;1.00;;;18.60;34.30;;;;;;5002815;28;20175;-79
2021/04/06 11:22:21;;;;;;;11.68;1.42;;;18.60;34.30;;;;;;5019443;28;20155;-80
2021/04/06 11:24:50;;;;;;;9.18;1.00;;;18.60;34.40;;;;;;5002193;28;20164;-79
2021/04/06 11:27:24;;;;;;;13.57;0.88;;;18.60;34.50;;;;;;5019523;28;20232;-80
2021/04/06 11:29:51;;;;;;;10.90;1.38;;;18.60;34.60;;;;;;5019546;28;20192;-79
2021/04/06 11:32:18;;;;;;;10.85;1.10;;;18.60;34.70;;;;;;5025865;28;20223;-79
2021/04/06 11:34:46;;;;;;;13.02;1.13;;;18.60;34.70;;;;;;5039466;28;20156;-79
2021/04/06 11:37:13;;;;;;;6.45;1.00;;;18.60;34.80;;;;;;5005704;28;20148;-79
2021/04/06 11:39:49;;;;;;;17.85;1.40;;;18.60;34.50;;;;;;5022013;28;20144;-80
2021/04/06 11:42:16;;;;;;;8.25;0.80;;;18.70;34.30;;;;;;5022116;28;20164;-80
2021/04/06 11:44:43;;;;;;;7.50;0.75;;;18.60;34.30;;;;;;5039508;28;20146;-79
2021/04/06 11:47:10;;;;;;;11.13;1.35;;;18.60;34.30;;;;;;5040375;28;20148;-79
2021/04/06 11:49:38;;;;;;;8.25;0.70;;;18.60;34.60;;;;;;5021236;28;20216;-80
2021/04/06 11:52:05;;;;;;;7.55;0.77;;;18.60;34.30;;;;;;5021069;28;20242;-79
2021/04/06 11:54:32;;;;;;;4.93;0.60;;;18.60;34.40;;;;;;5038036;28;20155;-79
2021/04/06 11:56:57;;;;;;;13.65;1.00;;;18.60;34.60;;;;;;5037729;28;20175;-81
2021/04/06 11:59:23;;;;;;;10.80;1.10;;;18.60;34.20;;;;;;5020357;28;20167;-79
2021/04/06 12:01:50;;;;;;;11.20;1.13;;;18.60;34.40;;;;;;5038426;28;20641;-80
2021/04/06 12:04:16;;;;;;;5.57;0.85;;;18.60;34.50;;;;;;5019729;28;20610;-79
2021/04/06 12:06:43;;;;;;;10.20;1.45;;;18.60;34.20;;;;;;5036539;28;20156;-80
2021/04/06 12:09:17;;;;;;;2.55;0.73;;;18.70;34.00;;;;;;5018032;28;20631;-79
2021/04/06 12:11:52;;;;;;;2.83;0.50;;;18.70;33.80;;;;;;5033180;28;20194;-79
2021/04/06 12:14:26;;;;;;;6.80;0.90;;;18.70;33.90;;;;;;5033953;28;20166;-79
2021/04/06 12:16:54;;;;;;;3.38;0.85;;;18.70;33.90;;;;;;5031752;28;20495;-80
2021/04/06 12:19:20;;;;;;;5.47;0.82;;;18.70;33.90;;;;;;5034447;28;20166;-80
2021/04/06 12:21:55;;;;;;;5.88;0.70;;;18.70;34.10;;;;;;5030984;28;20159;-79
2021/04/06 12:24:22;;;;;;;3.00;0.60;;;18.70;34.00;;;;;;5028768;28;20174;-79
2021/04/06 12:26:52;;;;;;;6.38;0.63;;;18.70;33.80;;;;;;5029600;28;20160;-79
2021/04/06 12:29:19;;;;;;;3.83;0.43;;;18.70;33.80;;;;;;5029352;28;20152;-79
2021/04/06 12:31:45;;;;;;;3.50;0.60;;;18.70;33.80;;;;;;5013114;28;20199;-80
2021/04/06 12:34:11;;;;;;;5.88;0.80;;;18.70;33.70;;;;;;5028927;28;20526;-79
2021/04/06 12:36:37;;;;;;;3.75;0.55;;;18.70;33.50;;;;;;5030256;28;20160;-79
2021/04/06 12:39:04;;;;;;;4.25;0.57;;;18.70;33.50;;;;;;5029614;28;20156;-79
2021/04/06 12:41:31;;;;;;;2.70;0.50;;;18.70;33.60;;;;;;5029204;28;20171;-79
2021/04/06 12:43:57;;;;;;;2.63;0.68;;;18.60;33.30;;;;;;5028812;28;20652;-79
2021/04/06 12:46:24;;;;;;;5.57;0.65;;;18.70;33.50;;;;;;5029298;28;20187;-80
2021/04/06 12:48:50;;;;;;;3.22;0.52;;;18.70;33.40;;;;;;5029265;28;20164;-79
2021/04/06 12:51:22;;;;;;;1.05;0.30;;;18.70;33.40;;;;;;5028551;28;20267;-80
2021/04/06 12:53:57;;;;;;;5.75;0.68;;;18.70;33.30;;;;;;5013474;28;20168;-77
2021/04/06 12:56:24;;;;;;;4.85;0.60;;;18.70;33.20;;;;;;5020590;28;20171;-80
2021/04/06 12:58:51;;;;;;;6.53;0.60;;;18.70;33.30;;;;;;5039646;28;20178;-79
2021/04/06 13:01:20;;;;;;;4.95;0.65;;;18.70;33.20;;;;;;5011962;28;20168;-79
2021/04/06 13:03:47;;;;;;;5.20;0.60;;;18.70;33.30;;;;;;5028154;28;20251;-81
2021/04/06 13:06:12;;;;;;;4.32;0.50;;;18.70;33.00;;;;;;5026601;28;20166;-80
2021/04/06 13:08:42;;;;;;;7.60;0.70;;;18.70;32.90;;;;;;5009978;28;20151;-80